Mistral — TCCH — position and weather

sailwx.info

Track history (hours):
 
Tides and Currents Weather Stations Pressure Air Temp Water Temp Dewpoint Dewpoint Depression Visibility Wind Speed Wind Dir Waves Ship Positions

Mistral

Last reported at 2014-Sep-19 13:31 UTC. Time now 2014-Sep-20 22:04 UTC.
Position N 40°59' E 028°60'.

; draft 4.6 m.

Type: Ship. MMSI: 271000615.

Date/timePositionNaut miles runAvg speedWind from/ knotsBaromVisibWave heightAir tempDewpointWater temp
2014-Sep-19 13:31N 40°59' E 028°60'4 4.5
2014-Sep-19 12:33N 40°56' E 028°57'2 1.2
2014-Sep-19 10:28N 40°58' E 028°56'0 0.0
2014-Sep-19 09:04N 40°58' E 028°56'0 0.0
2014-Sep-19 08:22N 40°58' E 028°56'0 0.0
2014-Sep-19 07:28N 40°58' E 028°56'0 0.0
2014-Sep-19 05:16N 40°58' E 028°56'0 0.0
2014-Sep-19 03:20N 40°58' E 028°56'0 0.0
2014-Sep-19 02:24N 40°58' E 028°56'0 0.0
2014-Sep-19 01:06N 40°58' E 028°56'0 0.2
2014-Sep-19 00:30N 40°58' E 028°56'1 1.2
2014-Sep-18 23:33N 40°57' E 028°57'5 5.0
2014-Sep-18 22:33N 40°53' E 028°60'7 6.6
2014-Sep-18 21:33N 40°49' E 029°07'7 7.4
2014-Sep-18 20:33N 40°46' E 029°16'4 4.4
2014-Sep-18 19:32N 40°45' E 029°21'5 4.7
2014-Sep-18 18:28N 40°45' E 029°28'2 0.3
2014-Sep-18 12:27N 40°44' E 029°30'0 0.0
2014-Sep-18 09:09N 40°44' E 029°30'0 0.0
2014-Sep-16 06:28N 40°44' E 029°30'0 0.0
2014-Sep-16 04:28N 40°44' E 029°30'0 0.0
2014-Sep-16 03:28N 40°44' E 029°30'0 0.0
2014-Sep-16 02:22N 40°44' E 029°30'0 0.0
2014-Sep-14 20:04N 40°44' E 029°30'0 0.0
2014-Sep-14 19:10N 40°44' E 029°30'0 0.0
2014-Sep-14 18:16N 40°44' E 029°30'0 0.0
2014-Sep-14 17:16N 40°44' E 029°30'0 0.0
2014-Sep-14 15:28N 40°44' E 029°30'0 0.0
2014-Sep-14 14:28N 40°44' E 029°30'0 0.0
2014-Sep-14 09:22N 40°44' E 029°30'0 0.0
2014-Sep-13 18:28N 40°44' E 029°30'0 0.0
2014-Sep-13 17:22N 40°44' E 029°30'0 0.0
2014-Sep-13 11:10N 40°44' E 029°30'0 0.0
2014-Sep-12 16:28N 40°44' E 029°30'0 0.0
2014-Sep-12 14:10N 40°44' E 029°30'0 0.0
2014-Sep-12 13:28N 40°44' E 029°30'0 0.0
2014-Sep-12 03:22N 40°44' E 029°30'0 0.0
2014-Sep-11 23:22N 40°44' E 029°30'0 0.0
2014-Sep-11 22:28N 40°44' E 029°30'  
Track history (hours):
 
Tides and Currents Weather Stations Pressure Air Temp Water Temp Dewpoint Dewpoint Depression Visibility Wind Speed Wind Dir Waves Ship Positions

Mistral

Last reported at 2014-Sep-19 13:31 UTC. Time now 2014-Sep-20 22:04 UTC.
Position N 40°59' E 028°60'.

; draft 4.6 m.

Type: Ship. MMSI: 271000615.

Date/timePositionNaut miles runAvg speedWind from/ knotsBaromVisibWave heightAir tempDewpointWater temp
2014-Sep-19 13:31N 40°59' E 028°60'4 4.5
2014-Sep-19 12:33N 40°56' E 028°57'2 1.2
2014-Sep-19 10:28N 40°58' E 028°56'0 0.0
2014-Sep-19 09:04N 40°58' E 028°56'0 0.0
2014-Sep-19 08:22N 40°58' E 028°56'0 0.0
2014-Sep-19 07:28N 40°58' E 028°56'0 0.0
2014-Sep-19 05:16N 40°58' E 028°56'0 0.0
2014-Sep-19 03:20N 40°58' E 028°56'0 0.0
2014-Sep-19 02:24N 40°58' E 028°56'0 0.0
2014-Sep-19 01:06N 40°58' E 028°56'0 0.2
2014-Sep-19 00:30N 40°58' E 028°56'1 1.2
2014-Sep-18 23:33N 40°57' E 028°57'5 5.0
2014-Sep-18 22:33N 40°53' E 028°60'7 6.6
2014-Sep-18 21:33N 40°49' E 029°07'7 7.4
2014-Sep-18 20:33N 40°46' E 029°16'4 4.4
2014-Sep-18 19:32N 40°45' E 029°21'5 4.7
2014-Sep-18 18:28N 40°45' E 029°28'2 0.3
2014-Sep-18 12:27N 40°44' E 029°30'0 0.0
2014-Sep-18 09:09N 40°44' E 029°30'0 0.0
2014-Sep-16 06:28N 40°44' E 029°30'0 0.0
2014-Sep-16 04:28N 40°44' E 029°30'0 0.0
2014-Sep-16 03:28N 40°44' E 029°30'0 0.0
2014-Sep-16 02:22N 40°44' E 029°30'0 0.0
2014-Sep-14 20:04N 40°44' E 029°30'0 0.0
2014-Sep-14 19:10N 40°44' E 029°30'0 0.0
2014-Sep-14 18:16N 40°44' E 029°30'0 0.0
2014-Sep-14 17:16N 40°44' E 029°30'0 0.0
2014-Sep-14 15:28N 40°44' E 029°30'0 0.0
2014-Sep-14 14:28N 40°44' E 029°30'0 0.0
2014-Sep-14 09:22N 40°44' E 029°30'0 0.0
2014-Sep-13 18:28N 40°44' E 029°30'0 0.0
2014-Sep-13 17:22N 40°44' E 029°30'0 0.0
2014-Sep-13 11:10N 40°44' E 029°30'0 0.0
2014-Sep-12 16:28N 40°44' E 029°30'0 0.0
2014-Sep-12 14:10N 40°44' E 029°30'0 0.0
2014-Sep-12 13:28N 40°44' E 029°30'0 0.0
2014-Sep-12 03:22N 40°44' E 029°30'0 0.0
2014-Sep-11 23:22N 40°44' E 029°30'0 0.0
2014-Sep-11 22:28N 40°44' E 029°30'  

Dump ship's entire track history